createdAt,value
2019-04-22T00:01:38.151Z,14.00
2019-04-22T00:03:50.674Z,14.10
2019-04-22T00:06:07.243Z,14.10
2019-04-22T00:08:16.746Z,14.10
2019-04-22T00:10:26.349Z,13.90
2019-04-22T00:12:35.866Z,13.80
2019-04-22T00:14:30.914Z,13.80
2019-04-22T00:16:50.336Z,13.90
2019-04-22T00:19:01.339Z,13.70
2019-04-22T00:21:02.324Z,13.80
2019-04-22T00:22:56.691Z,13.70
2019-04-22T00:25:10.057Z,13.50
2019-04-22T00:27:14.031Z,13.40
2019-04-22T00:29:37.458Z,13.50
2019-04-22T00:31:45.925Z,13.50
2019-04-22T00:33:45.533Z,13.60
2019-04-22T00:35:59.792Z,13.40
2019-04-22T00:38:03.828Z,13.30
2019-04-22T00:40:09.100Z,13.40
2019-04-22T00:42:18.099Z,13.50
2019-04-22T00:44:25.598Z,13.70
2019-04-22T00:46:29.259Z,13.60
2019-04-22T00:49:07.148Z,13.50
2019-04-22T00:50:37.209Z,13.60
2019-04-22T00:52:38.845Z,13.50
2019-04-22T00:54:53.202Z,13.30
2019-04-22T00:56:54.343Z,13.20
2019-04-22T00:58:59.101Z,13.10
2019-04-22T01:01:08.619Z,13.10
2019-04-22T01:03:21.562Z,13.10
2019-04-22T01:05:25.176Z,13.10
2019-04-22T01:07:23.906Z,13.20
2019-04-22T01:09:32.601Z,13.00
2019-04-22T01:11:33.580Z,13.00
2019-04-22T01:13:44.310Z,12.90
2019-04-22T01:15:47.886Z,12.90
2019-04-22T01:18:00.301Z,12.80
2019-04-22T01:20:13.074Z,12.90
2019-04-22T01:22:06.120Z,12.60
2019-04-22T01:24:09.216Z,12.30
2019-04-22T01:26:17.252Z,12.20
2019-04-22T01:28:20.203Z,12.00
2019-04-22T01:30:24.210Z,12.30
2019-04-22T01:32:23.890Z,12.20
2019-04-22T01:34:37.523Z,12.30
2019-04-22T01:36:47.421Z,12.10
2019-04-22T01:38:58.361Z,12.30
2019-04-22T01:41:07.182Z,12.00
2019-04-22T01:45:19.388Z,12.00
2019-04-22T01:47:27.517Z,12.40
2019-04-22T01:51:47.211Z,12.40
2019-04-22T01:53:42.396Z,12.30
2019-04-22T01:55:57.424Z,12.00
2019-04-22T01:57:47.661Z,12.10
2019-04-22T01:59:51.994Z,12.10
2019-04-22T02:02:02.945Z,12.30
2019-04-22T02:04:20.244Z,12.00
2019-04-22T02:06:17.165Z,12.10
2019-04-22T02:08:33.117Z,12.00
2019-04-22T02:10:34.676Z,12.30
2019-04-22T02:12:32.061Z,11.90
2019-04-22T02:14:39.841Z,12.10
2019-04-22T02:16:50.084Z,11.80
2019-04-22T02:18:58.444Z,12.00
2019-04-22T02:20:56.774Z,12.00
2019-04-22T02:25:32.568Z,12.30
2019-04-22T02:29:43.468Z,12.10
2019-04-22T02:31:49.103Z,12.00
2019-04-22T02:38:19.980Z,12.30
2019-04-22T02:40:19.384Z,12.10
2019-04-22T02:44:30.479Z,12.20
2019-04-22T02:46:42.986Z,12.30
2019-04-22T02:50:45.361Z,12.30
2019-04-22T02:55:03.361Z,12.20
2019-04-22T02:57:13.732Z,12.10
2019-04-22T03:03:51.851Z,12.20
2019-04-22T03:05:37.126Z,12.10
2019-04-22T03:07:31.757Z,12.10
2019-04-22T03:09:52.747Z,12.10
2019-04-22T03:12:02.520Z,12.00
2019-04-22T03:14:01.451Z,11.90
2019-04-22T03:16:17.496Z,11.90
2019-04-22T03:18:09.146Z,11.90
2019-04-22T03:20:29.195Z,11.90
2019-04-22T03:24:28.949Z,11.80
2019-04-22T03:28:47.717Z,11.70
2019-04-22T03:30:56.059Z,11.60
2019-04-22T03:39:31.988Z,11.60
2019-04-22T03:41:27.342Z,11.40
2019-04-22T03:43:23.992Z,11.30
2019-04-22T03:47:33.602Z,11.20
2019-04-22T03:52:03.138Z,11.40
2019-04-22T03:54:02.905Z,11.50
2019-04-22T03:55:51.317Z,11.50
2019-04-22T03:57:57.352Z,11.50
2019-04-22T04:02:21.457Z,11.30
2019-04-22T04:06:32.816Z,11.00
2019-04-22T04:10:46.122Z,10.80
2019-04-22T04:12:47.146Z,11.10
2019-04-22T04:14:53.662Z,11.10
2019-04-22T04:17:00.248Z,11.00
2019-04-22T04:19:07.820Z,11.00
2019-04-22T04:25:27.258Z,11.20
2019-04-22T04:31:37.934Z,11.40
2019-04-22T04:33:54.260Z,11.30
2019-04-22T04:35:50.600Z,11.40
2019-04-22T04:37:52.172Z,11.40
2019-04-22T04:44:10.772Z,11.50
2019-04-22T04:46:37.649Z,11.30
2019-04-22T04:48:21.320Z,11.40
2019-04-22T04:50:18.617Z,11.30
2019-04-22T04:54:42.004Z,11.40
2019-04-22T05:02:58.373Z,11.60
2019-04-22T05:05:16.744Z,11.50
2019-04-22T05:11:32.914Z,11.60
2019-04-22T05:13:35.127Z,11.60
2019-04-22T05:17:47.153Z,11.90
2019-04-22T05:19:59.042Z,12.00
2019-04-22T05:21:51.151Z,11.90
2019-04-22T05:23:53.555Z,11.90
2019-04-22T05:26:03.973Z,11.90
2019-04-22T05:28:04.998Z,12.00
2019-04-22T05:32:22.922Z,11.90
2019-04-22T05:50:48.559Z,12.40
2019-04-22T05:52:55.269Z,12.30
2019-04-22T05:55:02.862Z,12.30
2019-04-22T05:57:12.420Z,12.40
2019-04-22T05:59:12.405Z,12.50
2019-04-22T06:03:20.894Z,12.60
2019-04-22T06:05:38.558Z,12.60
2019-04-22T06:07:32.337Z,12.70
2019-04-22T06:09:47.244Z,12.70
2019-04-22T06:12:04.898Z,12.70
2019-04-22T06:14:16.686Z,12.70
2019-04-22T06:16:31.061Z,12.90
2019-04-22T06:18:33.464Z,12.90
2019-04-22T06:20:50.062Z,13.00
2019-04-22T06:24:53.197Z,13.00
2019-04-22T06:27:06.394Z,13.10
2019-04-22T06:29:04.656Z,13.20
2019-04-22T06:31:10.654Z,13.20
2019-04-22T06:33:14.986Z,13.30
2019-04-22T06:35:23.581Z,13.40
2019-04-22T06:37:26.085Z,13.50
2019-04-22T06:39:35.655Z,13.50
2019-04-22T06:41:44.210Z,13.50
2019-04-22T06:43:44.652Z,13.60
2019-04-22T06:45:43.796Z,13.60
2019-04-22T06:48:15.840Z,13.70
2019-04-22T06:50:04.164Z,13.80
2019-04-22T06:54:14.746Z,13.90
2019-04-22T06:56:16.166Z,14.00
2019-04-22T06:58:23.453Z,14.00
2019-04-22T07:00:32.420Z,14.10
2019-04-22T07:02:46.480Z,14.10
2019-04-22T07:04:47.703Z,14.10
2019-04-22T07:06:48.318Z,14.20
2019-04-22T07:11:01.409Z,14.40
2019-04-22T07:13:11.245Z,14.40
2019-04-22T07:15:24.410Z,14.30
2019-04-22T07:17:26.175Z,14.40
2019-04-22T07:19:31.931Z,14.40
2019-04-22T07:21:34.608Z,14.50
2019-04-22T07:23:41.956Z,14.50
2019-04-22T07:26:00.250Z,14.50
2019-04-22T07:27:55.965Z,14.60
2019-04-22T07:30:03.881Z,14.60
2019-04-22T07:32:05.021Z,14.80
2019-04-22T07:34:15.763Z,14.80
2019-04-22T07:36:35.352Z,14.80
2019-04-22T07:38:25.709Z,14.90
2019-04-22T07:40:28.783Z,15.00
2019-04-22T07:42:32.807Z,15.10
2019-04-22T07:44:38.453Z,15.20
2019-04-22T07:46:45.051Z,15.20
2019-04-22T07:51:07.203Z,15.20
2019-04-22T07:52:58.632Z,15.20
2019-04-22T07:55:02.618Z,15.20
2019-04-22T07:57:18.437Z,15.20
2019-04-22T07:59:15.284Z,15.30
2019-04-22T08:01:24.649Z,15.40
2019-04-22T08:03:37.665Z,15.40
2019-04-22T08:09:55.202Z,15.50
2019-04-22T08:13:57.019Z,15.60
2019-04-22T08:16:04.833Z,15.70
2019-04-22T08:18:09.931Z,15.70
2019-04-22T08:20:18.518Z,15.80
2019-04-22T08:22:14.616Z,15.80
2019-04-22T08:24:28.625Z,15.80
2019-04-22T08:26:32.009Z,15.80
2019-04-22T08:28:42.786Z,15.80
2019-04-22T08:32:47.391Z,16.10
2019-04-22T08:34:56.163Z,16.20
2019-04-22T08:37:35.719Z,16.20
2019-04-22T08:39:10.964Z,16.20
2019-04-22T08:41:33.112Z,16.20
2019-04-22T08:43:34.067Z,16.10
2019-04-22T08:45:34.664Z,16.20
2019-04-22T08:47:36.058Z,16.20
2019-04-22T08:49:42.558Z,16.30
2019-04-22T08:51:43.101Z,16.30
2019-04-22T08:56:12.250Z,16.50
2019-04-22T09:00:06.806Z,16.50
2019-04-22T09:02:19.584Z,16.50
2019-04-22T09:04:16.399Z,16.60
2019-04-22T09:06:39.984Z,16.60
2019-04-22T09:08:34.447Z,16.60
2019-04-22T09:10:43.582Z,16.70
2019-04-22T09:15:08.303Z,16.80
2019-04-22T09:17:02.376Z,16.90
2019-04-22T09:19:05.699Z,17.00
2019-04-22T09:23:23.565Z,17.10
2019-04-22T09:25:24.019Z,17.10
2019-04-22T09:32:03.450Z,17.20
2019-04-22T09:33:43.346Z,17.30
2019-04-22T09:35:52.453Z,17.40
2019-04-22T09:38:10.596Z,17.40
2019-04-22T09:40:04.635Z,17.40
2019-04-22T09:42:09.125Z,17.40
2019-04-22T09:44:08.130Z,17.50
2019-04-22T09:46:22.283Z,17.50
2019-04-22T09:48:30.062Z,17.40
2019-04-22T09:50:40.475Z,17.40
2019-04-22T09:52:43.687Z,17.40
2019-04-22T09:54:53.049Z,17.60
2019-04-22T09:56:49.295Z,17.70
2019-04-22T09:58:58.956Z,17.80
2019-04-22T10:01:18.809Z,17.80
2019-04-22T10:03:19.930Z,18.00
2019-04-22T10:05:20.824Z,18.10
2019-04-22T10:07:31.906Z,18.00
2019-04-22T10:09:51.772Z,18.10
2019-04-22T10:13:53.607Z,18.00
2019-04-22T10:15:58.963Z,18.20
2019-04-22T10:17:58.274Z,18.20
2019-04-22T10:20:01.117Z,18.30
2019-04-22T10:22:10.439Z,18.40
2019-04-22T10:24:16.750Z,18.40
2019-04-22T10:26:30.114Z,18.30
2019-04-22T10:28:32.371Z,18.20
2019-04-22T10:30:46.178Z,18.20
2019-04-22T10:32:46.219Z,18.20
2019-04-22T10:34:33.964Z,18.30
2019-04-22T10:36:28.902Z,18.30
2019-04-22T10:38:34.486Z,18.30
2019-04-22T10:40:40.425Z,18.30
2019-04-22T10:42:45.358Z,18.40
2019-04-22T10:44:50.325Z,18.30
2019-04-22T10:46:56.092Z,18.40
2019-04-22T10:49:00.391Z,18.50
2019-04-22T10:51:04.634Z,18.50
2019-04-22T10:53:08.962Z,18.50
2019-04-22T10:55:13.771Z,18.60
2019-04-22T10:57:18.172Z,18.80
2019-04-22T10:59:22.692Z,18.80
2019-04-22T11:01:27.626Z,18.90
2019-04-22T11:03:33.043Z,18.70
2019-04-22T11:05:38.025Z,18.70
2019-04-22T11:07:49.499Z,18.60
2019-04-22T11:09:57.151Z,18.50
2019-04-22T11:12:01.719Z,18.60
2019-04-22T11:14:00.095Z,18.60
2019-04-22T11:16:05.352Z,18.70
2019-04-22T11:18:11.442Z,18.70
2019-04-22T11:20:15.894Z,18.70
2019-04-22T11:22:25.462Z,18.80
2019-04-22T11:24:26.656Z,18.70
2019-04-22T11:26:31.798Z,18.80
2019-04-22T11:28:35.996Z,19.00
2019-04-22T11:30:40.864Z,19.50
2019-04-22T11:32:44.826Z,20.00
2019-04-22T11:34:49.115Z,20.50
2019-04-22T11:36:54.773Z,21.30
2019-04-22T11:39:02.505Z,21.90
2019-04-22T11:41:05.476Z,21.90
2019-04-22T11:43:10.252Z,22.00
2019-04-22T11:45:15.551Z,22.30
2019-04-22T11:47:21.297Z,22.20
2019-04-22T11:49:25.907Z,22.60
2019-04-22T11:51:30.119Z,23.00
2019-04-22T11:53:34.607Z,23.60
2019-04-22T11:55:40.605Z,23.50
2019-04-22T11:57:45.217Z,23.40
2019-04-22T11:59:51.061Z,23.50
2019-04-22T12:01:57.036Z,23.50
2019-04-22T12:04:02.218Z,23.60
2019-04-22T12:06:08.415Z,24.00
2019-04-22T12:08:13.253Z,24.10
2019-04-22T12:10:30.947Z,24.20
2019-04-22T12:12:25.565Z,24.00
2019-04-22T12:14:30.167Z,24.50
2019-04-22T12:16:35.105Z,24.90
2019-04-22T12:18:39.799Z,24.60
2019-04-22T12:20:45.424Z,24.70
2019-04-22T12:22:51.363Z,24.70
2019-04-22T12:24:56.556Z,24.90
2019-04-22T12:27:02.210Z,25.20
2019-04-22T12:29:07.097Z,25.40
2019-04-22T12:31:13.383Z,25.40
2019-04-22T12:33:23.276Z,24.90
2019-04-22T12:35:28.466Z,25.10
2019-04-22T12:37:42.996Z,24.70
2019-04-22T12:39:39.349Z,24.60
2019-04-22T12:41:44.390Z,24.50
2019-04-22T12:43:49.336Z,24.40
2019-04-22T12:45:54.338Z,24.80
2019-04-22T12:48:00.020Z,25.10
2019-04-22T12:50:14.825Z,24.70
2019-04-22T12:52:23.383Z,24.40
2019-04-22T12:54:19.359Z,24.50
2019-04-22T12:56:25.664Z,24.90
2019-04-22T12:58:31.636Z,25.20
2019-04-22T13:00:36.527Z,25.20
2019-04-22T13:02:44.999Z,25.40
2019-04-22T13:04:49.974Z,25.30
2019-04-22T13:06:55.547Z,25.60
2019-04-22T13:09:00.382Z,26.30
2019-04-22T13:11:12.018Z,25.40
2019-04-22T13:13:13.134Z,25.40
2019-04-22T13:15:18.453Z,25.10
2019-04-22T13:17:23.174Z,25.30
2019-04-22T13:19:28.329Z,26.10
2019-04-22T13:21:33.653Z,25.90
2019-04-22T13:23:39.030Z,25.90
2019-04-22T13:25:44.886Z,25.60
2019-04-22T13:27:51.065Z,26.00
2019-04-22T13:29:57.063Z,26.40
2019-04-22T13:32:02.549Z,26.40
2019-04-22T13:34:13.297Z,26.30
2019-04-22T13:36:13.417Z,26.50
2019-04-22T13:38:19.255Z,26.50
2019-04-22T13:40:25.201Z,26.40
2019-04-22T13:42:31.229Z,26.70
2019-04-22T13:44:37.606Z,26.60
2019-04-22T13:47:06.823Z,26.70
2019-04-22T13:49:17.845Z,26.60
2019-04-22T13:51:33.815Z,26.40
2019-04-22T13:55:43.761Z,25.60
2019-04-22T13:57:32.563Z,26.10
2019-04-22T13:59:30.251Z,26.70
2019-04-22T14:01:36.687Z,26.60
2019-04-22T14:04:00.770Z,26.10
2019-04-22T14:06:06.864Z,26.10
2019-04-22T14:08:12.645Z,26.30
2019-04-22T14:10:18.530Z,26.70
2019-04-22T14:12:24.470Z,26.70
2019-04-22T14:14:30.226Z,26.60
2019-04-22T14:16:35.263Z,26.70
2019-04-22T14:18:41.499Z,26.50
2019-04-22T14:20:46.972Z,26.70
2019-04-22T14:22:52.742Z,26.60
2019-04-22T14:24:58.685Z,27.00
2019-04-22T14:27:17.905Z,27.40
2019-04-22T14:29:09.702Z,27.30
2019-04-22T14:31:14.758Z,27.40
2019-04-22T14:33:20.306Z,27.50
2019-04-22T14:35:25.272Z,27.40
2019-04-22T14:37:29.948Z,27.50
2019-04-22T14:39:35.758Z,27.70
2019-04-22T14:41:55.438Z,27.90
2019-04-22T14:44:46.883Z,27.80
2019-04-22T14:46:35.077Z,27.40
2019-04-22T14:48:33.523Z,27.20
2019-04-22T14:50:32.884Z,27.50
2019-04-22T14:52:37.864Z,27.60
2019-04-22T14:54:34.587Z,27.90
2019-04-22T14:56:26.758Z,27.20
2019-04-22T14:58:31.455Z,27.30
2019-04-22T15:00:37.991Z,27.20
2019-04-22T15:02:43.813Z,27.50
2019-04-22T15:04:49.934Z,28.30
2019-04-22T15:06:54.860Z,27.90
2019-04-22T15:08:59.709Z,27.50
2019-04-22T15:11:06.229Z,26.90
2019-04-22T15:13:11.563Z,26.70
2019-04-22T15:15:43.193Z,26.90
2019-04-22T15:17:54.349Z,26.80
2019-04-22T15:20:07.689Z,26.80
2019-04-22T15:22:12.654Z,26.80
2019-04-22T15:24:27.466Z,26.70
2019-04-22T15:26:32.744Z,26.80
2019-04-22T15:28:37.492Z,26.80
2019-04-22T15:30:41.745Z,27.00
2019-04-22T15:32:45.815Z,27.10
2019-04-22T15:34:51.158Z,27.20
2019-04-22T15:36:56.195Z,27.20
2019-04-22T15:39:02.961Z,27.00
2019-04-22T15:41:07.107Z,27.20
2019-04-22T15:43:11.055Z,27.30
2019-04-22T15:45:16.878Z,27.30
2019-04-22T15:47:21.131Z,27.40
2019-04-22T15:49:25.202Z,27.50
2019-04-22T15:51:29.173Z,27.20
2019-04-22T15:53:33.783Z,26.50
2019-04-22T15:55:38.906Z,26.70
2019-04-22T15:57:43.958Z,26.70
2019-04-22T16:00:06.829Z,26.30
2019-04-22T16:01:58.615Z,26.10
2019-04-22T16:04:00.944Z,26.20
2019-04-22T16:06:06.122Z,26.20
2019-04-22T16:08:10.884Z,26.40
2019-04-22T16:10:15.735Z,26.30
2019-04-22T16:12:28.710Z,26.10
2019-04-22T16:14:32.769Z,26.50
2019-04-22T16:16:32.422Z,26.50
2019-04-22T16:18:37.980Z,26.30
2019-04-22T16:20:42.045Z,26.70
2019-04-22T16:23:03.381Z,26.70
2019-04-22T16:25:38.758Z,26.90
2019-04-22T16:27:42.873Z,27.00
2019-04-22T16:29:47.455Z,26.80
2019-04-22T16:31:51.710Z,26.80
2019-04-22T16:33:56.312Z,26.80
2019-04-22T16:36:00.659Z,26.80
2019-04-22T16:38:06.648Z,26.50
2019-04-22T16:40:12.425Z,26.50
2019-04-22T16:42:27.850Z,26.50
2019-04-22T16:44:22.787Z,26.40
2019-04-22T16:46:27.768Z,26.40
2019-04-22T16:48:31.855Z,26.60
2019-04-22T16:50:39.303Z,26.30
2019-04-22T16:52:41.836Z,26.30
2019-04-22T16:54:46.543Z,25.90
2019-04-22T16:56:52.128Z,25.70
2019-04-22T16:58:56.812Z,25.50
2019-04-22T17:01:00.949Z,25.10
2019-04-22T17:03:24.898Z,25.50
2019-04-22T17:05:54.019Z,25.40
2019-04-22T17:07:58.254Z,25.60
2019-04-22T17:10:03.816Z,25.80
2019-04-22T17:12:08.275Z,25.70
2019-04-22T17:14:13.400Z,25.20
2019-04-22T17:16:18.183Z,25.30
2019-04-22T17:18:23.224Z,25.30
2019-04-22T17:20:29.257Z,25.60
2019-04-22T17:22:33.617Z,25.50
2019-04-22T17:24:37.768Z,25.30
2019-04-22T17:26:42.360Z,25.10
2019-04-22T17:28:49.231Z,25.00
2019-04-22T17:30:53.974Z,24.80
2019-04-22T17:32:58.822Z,24.70
2019-04-22T17:35:04.087Z,24.60
2019-04-22T17:37:15.948Z,24.60
2019-04-22T17:39:30.131Z,24.70
2019-04-22T17:41:34.418Z,24.80
2019-04-22T17:44:09.766Z,24.50
2019-04-22T17:45:58.424Z,24.20
2019-04-22T17:48:23.855Z,24.20
2019-04-22T17:50:30.398Z,24.00
2019-04-22T17:52:38.908Z,23.80
2019-04-22T17:54:37.375Z,23.50
2019-04-22T17:56:58.550Z,23.00
2019-04-22T17:59:10.481Z,22.80
2019-04-22T18:01:22.473Z,22.50
2019-04-22T18:03:14.770Z,22.30
2019-04-22T18:05:13.016Z,22.40
2019-04-22T18:07:52.217Z,21.80
2019-04-22T18:10:10.738Z,21.50
2019-04-22T18:11:54.466Z,21.30
2019-04-22T18:14:00.305Z,21.30
2019-04-22T18:16:02.334Z,21.30
2019-04-22T18:18:12.401Z,21.10
2019-04-22T18:20:10.492Z,21.00
2019-04-22T18:22:12.307Z,20.50
2019-04-22T18:24:11.447Z,20.20
2019-04-22T18:26:24.601Z,20.10
2019-04-22T18:28:41.644Z,19.80
2019-04-22T18:30:35.195Z,19.70
2019-04-22T18:32:43.724Z,19.60
2019-04-22T18:34:45.589Z,19.40
2019-04-22T18:36:58.187Z,19.00
2019-04-22T18:39:11.526Z,18.90
2019-04-22T18:41:04.815Z,18.70
2019-04-22T18:43:19.906Z,18.90
2019-04-22T18:45:35.352Z,18.90
2019-04-22T18:47:24.882Z,18.80
2019-04-22T18:49:33.886Z,18.70
2019-04-22T18:51:46.807Z,18.90
2019-04-22T18:54:22.711Z,18.70
2019-04-22T18:56:37.608Z,18.30
2019-04-22T18:58:32.234Z,18.20
2019-04-22T19:00:27.315Z,18.10
2019-04-22T19:02:35.007Z,18.10
2019-04-22T19:04:47.253Z,18.20
2019-04-22T19:07:00.385Z,18.00
2019-04-22T19:09:11.676Z,18.00
2019-04-22T19:11:27.080Z,18.00
2019-04-22T19:13:54.481Z,18.00
2019-04-22T19:15:43.212Z,17.90
2019-04-22T19:18:04.205Z,17.90
2019-04-22T19:20:03.138Z,18.00
2019-04-22T19:21:57.797Z,17.90
2019-04-22T19:24:09.029Z,18.00
2019-04-22T19:26:20.563Z,17.90
2019-04-22T19:28:31.924Z,17.60
2019-04-22T19:30:29.588Z,17.70
2019-04-22T19:32:41.564Z,17.60
2019-04-22T19:34:36.865Z,17.80
2019-04-22T19:36:46.926Z,17.80
2019-04-22T19:38:51.073Z,17.60
2019-04-22T19:43:05.500Z,17.60
2019-04-22T19:45:05.836Z,17.60
2019-04-22T19:47:24.724Z,17.60
2019-04-22T19:49:29.071Z,17.50
2019-04-22T19:51:29.177Z,17.50
2019-04-22T19:53:37.179Z,17.40
2019-04-22T19:55:39.259Z,17.30
2019-04-22T19:58:00.003Z,17.30
2019-04-22T20:00:10.878Z,17.10
2019-04-22T20:02:41.168Z,17.20
2019-04-22T20:04:54.489Z,17.10
2019-04-22T20:06:59.360Z,17.00
2019-04-22T20:09:09.146Z,16.90
2019-04-22T20:11:17.076Z,16.90
2019-04-22T20:13:28.855Z,16.90
2019-04-22T20:15:19.921Z,17.00
2019-04-22T20:17:41.676Z,16.90
2019-04-22T20:19:41.409Z,16.90
2019-04-22T20:21:40.554Z,16.80
2019-04-22T20:23:39.529Z,16.70
2019-04-22T20:25:49.678Z,16.80
2019-04-22T20:28:01.387Z,16.70
2019-04-22T20:30:09.906Z,16.60
2019-04-22T20:32:21.845Z,16.60
2019-04-22T20:34:32.200Z,16.40
2019-04-22T20:36:55.452Z,16.30
2019-04-22T20:38:43.870Z,16.40
2019-04-22T20:40:42.621Z,16.40
2019-04-22T20:42:55.527Z,16.30
2019-04-22T20:44:57.234Z,16.40
2019-04-22T20:47:09.127Z,16.40
2019-04-22T20:49:19.993Z,16.30
2019-04-22T20:51:39.344Z,16.30
2019-04-22T20:53:37.966Z,16.20
2019-04-22T20:55:36.882Z,16.20
2019-04-22T20:57:48.027Z,16.20
2019-04-22T20:59:48.338Z,16.10
2019-04-22T21:01:55.270Z,16.00
2019-04-22T21:03:47.703Z,16.10
2019-04-22T21:05:55.885Z,16.10
2019-04-22T21:08:15.798Z,16.20
2019-04-22T21:10:17.185Z,16.30
2019-04-22T21:12:17.730Z,16.00
2019-04-22T21:14:23.232Z,16.00
2019-04-22T21:16:37.629Z,16.00
2019-04-22T21:18:37.621Z,15.90
2019-04-22T21:20:49.560Z,16.00
2019-04-22T21:22:58.785Z,15.90
2019-04-22T21:24:53.644Z,15.90
2019-04-22T21:27:10.234Z,15.90
2019-04-22T21:29:09.839Z,15.90
2019-04-22T21:31:19.183Z,15.80
2019-04-22T21:33:15.166Z,15.70
2019-04-22T21:37:37.827Z,15.60
2019-04-22T21:39:36.702Z,15.70
2019-04-22T21:41:46.396Z,15.70
2019-04-22T21:43:54.772Z,15.60
2019-04-22T21:45:57.326Z,15.40
2019-04-22T21:48:18.210Z,15.50
2019-04-22T21:50:28.208Z,15.30
2019-04-22T21:52:21.518Z,15.40
2019-04-22T21:54:22.091Z,15.30
2019-04-22T21:58:50.610Z,15.40
2019-04-22T22:01:10.998Z,15.20
2019-04-22T22:03:11.791Z,15.00
2019-04-22T22:05:04.562Z,15.10
2019-04-22T22:07:03.227Z,15.20
2019-04-22T22:09:22.141Z,15.20
2019-04-22T22:11:30.379Z,15.00
2019-04-22T22:13:36.021Z,15.00
2019-04-22T22:15:36.290Z,14.90
2019-04-22T22:17:45.763Z,14.90
2019-04-22T22:19:48.520Z,14.80
2019-04-22T22:22:13.834Z,14.50
2019-04-22T22:24:04.284Z,14.50
2019-04-22T22:26:04.191Z,14.50
2019-04-22T22:28:29.436Z,14.50
2019-04-22T22:30:36.937Z,14.50
2019-04-22T22:32:32.449Z,14.30
2019-04-22T22:34:28.050Z,14.30
2019-04-22T22:36:31.006Z,14.50
2019-04-22T22:38:35.181Z,14.50
2019-04-22T22:40:30.336Z,14.40
2019-04-22T22:42:43.721Z,14.40
2019-04-22T22:44:48.658Z,14.30
2019-04-22T22:47:06.482Z,14.30
2019-04-22T22:49:18.359Z,14.30
2019-04-22T22:51:32.534Z,14.20
2019-04-22T22:53:34.003Z,14.10
2019-04-22T22:55:37.181Z,14.10
2019-04-22T22:57:39.946Z,14.00
2019-04-22T22:59:46.430Z,14.20
2019-04-22T23:02:00.235Z,14.20
2019-04-22T23:03:55.882Z,14.10
2019-04-22T23:06:02.944Z,14.10
2019-04-22T23:08:09.569Z,14.10
2019-04-22T23:10:14.513Z,14.00
2019-04-22T23:14:46.609Z,13.90
2019-04-22T23:16:39.571Z,13.90
2019-04-22T23:18:57.530Z,13.80
2019-04-22T23:21:03.056Z,13.80
2019-04-22T23:23:25.711Z,14.00
2019-04-22T23:25:33.335Z,14.00
2019-04-22T23:27:44.382Z,13.90
2019-04-22T23:30:01.491Z,13.80
2019-04-22T23:32:16.983Z,13.80
2019-04-22T23:34:21.886Z,13.90
2019-04-22T23:36:42.057Z,13.90
2019-04-22T23:38:51.972Z,13.70
2019-04-22T23:40:54.166Z,13.60
2019-04-22T23:43:07.127Z,13.70
2019-04-22T23:45:12.321Z,13.80
2019-04-22T23:47:13.780Z,13.60
2019-04-22T23:49:18.021Z,13.70
2019-04-22T23:51:26.711Z,13.70
2019-04-22T23:53:58.033Z,13.80
2019-04-22T23:55:44.753Z,13.70
2019-04-22T23:57:48.837Z,13.70
2019-04-22T23:59:57.088Z,13.70
